sensor_id;sensor_type;location;lat;lon;timestamp;temperature;humidity
37984;DHT22;64625;50.882;4.376;2023-05-29T00:01:33;16.10;99.90
37984;DHT22;64625;50.882;4.376;2023-05-29T00:04:01;16.10;99.90
37984;DHT22;64625;50.882;4.376;2023-05-29T00:06:27;16.00;99.90
37984;DHT22;64625;50.882;4.376;2023-05-29T00:08:55;16.00;99.90
37984;DHT22;64625;50.882;4.376;2023-05-29T00:11:21;16.00;99.90
37984;DHT22;64625;50.882;4.376;2023-05-29T00:13:51;15.90;99.90
37984;DHT22;64625;50.882;4.376;2023-05-29T00:16:17;15.90;99.90
37984;DHT22;64625;50.882;4.376;2023-05-29T00:18:43;15.80;99.90
37984;DHT22;64625;50.882;4.376;2023-05-29T00:21:13;15.80;99.90
37984;DHT22;64625;50.882;4.376;2023-05-29T00:23:40;15.70;99.90
37984;DHT22;64625;50.882;4.376;2023-05-29T00:26:06;15.70;99.90
37984;DHT22;64625;50.882;4.376;2023-05-29T00:28:32;15.70;99.90
37984;DHT22;64625;50.882;4.376;2023-05-29T00:30:58;15.60;99.90
37984;DHT22;64625;50.882;4.376;2023-05-29T00:33:24;15.60;99.90
37984;DHT22;64625;50.882;4.376;2023-05-29T00:35:50;15.50;99.90
37984;DHT22;64625;50.882;4.376;2023-05-29T00:38:16;15.50;99.90
37984;DHT22;64625;50.882;4.376;2023-05-29T00:40:42;15.50;99.90
37984;DHT22;64625;50.882;4.376;2023-05-29T00:43:08;15.40;99.90
37984;DHT22;64625;50.882;4.376;2023-05-29T00:45:34;15.40;99.90
37984;DHT22;64625;50.882;4.376;2023-05-29T00:48:04;15.30;99.90
37984;DHT22;64625;50.882;4.376;2023-05-29T00:50:31;15.30;99.90
37984;DHT22;64625;50.882;4.376;2023-05-29T00:52:59;15.30;99.90
37984;DHT22;64625;50.882;4.376;2023-05-29T00:55:29;15.20;99.90
37984;DHT22;64625;50.882;4.376;2023-05-29T00:57:55;15.20;99.90
37984;DHT22;64625;50.882;4.376;2023-05-29T01:00:21;15.10;99.90
37984;DHT22;64625;50.882;4.376;2023-05-29T01:02:48;15.10;99.90
37984;DHT22;64625;50.882;4.376;2023-05-29T01:05:15;15.10;99.90
37984;DHT22;64625;50.882;4.376;2023-05-29T01:07:41;15.00;99.90
37984;DHT22;64625;50.882;4.376;2023-05-29T01:10:11;15.00;99.90
37984;DHT22;64625;50.882;4.376;2023-05-29T01:12:51;14.90;99.90
37984;DHT22;64625;50.882;4.376;2023-05-29T01:26:48;14.70;99.90
37984;DHT22;64625;50.882;4.376;2023-05-29T01:29:21;14.70;99.90
37984;DHT22;64625;50.882;4.376;2023-05-29T01:31:50;14.70;99.90
37984;DHT22;64625;50.882;4.376;2023-05-29T01:34:17;14.60;99.90
37984;DHT22;64625;50.882;4.376;2023-05-29T01:36:43;14.60;99.90
37984;DHT22;64625;50.882;4.376;2023-05-29T01:39:10;14.60;99.90
37984;DHT22;64625;50.882;4.376;2023-05-29T01:41:36;14.60;99.90
37984;DHT22;64625;50.882;4.376;2023-05-29T01:44:05;14.60;99.90
37984;DHT22;64625;50.882;4.376;2023-05-29T01:46:35;14.60;99.90
37984;DHT22;64625;50.882;4.376;2023-05-29T01:49:01;14.50;99.90
37984;DHT22;64625;50.882;4.376;2023-05-29T01:51:28;14.50;99.90
37984;DHT22;64625;50.882;4.376;2023-05-29T01:53:54;14.40;99.90
37984;DHT22;64625;50.882;4.376;2023-05-29T01:56:20;14.40;99.90
37984;DHT22;64625;50.882;4.376;2023-05-29T01:58:47;14.40;99.90
37984;DHT22;64625;50.882;4.376;2023-05-29T02:01:13;14.40;99.90
37984;DHT22;64625;50.882;4.376;2023-05-29T02:03:39;14.40;99.90
37984;DHT22;64625;50.882;4.376;2023-05-29T02:06:05;14.40;99.90
37984;DHT22;64625;50.882;4.376;2023-05-29T02:08:32;14.40;99.90
37984;DHT22;64625;50.882;4.376;2023-05-29T02:10:58;14.40;99.90
37984;DHT22;64625;50.882;4.376;2023-05-29T02:13:24;14.40;99.90
37984;DHT22;64625;50.882;4.376;2023-05-29T02:15:50;14.40;99.90
37984;DHT22;64625;50.882;4.376;2023-05-29T02:18:16;14.40;99.90
37984;DHT22;64625;50.882;4.376;2023-05-29T02:20:43;14.40;99.90
37984;DHT22;64625;50.882;4.376;2023-05-29T02:23:09;14.30;99.90
37984;DHT22;64625;50.882;4.376;2023-05-29T02:25:35;14.30;99.90
37984;DHT22;64625;50.882;4.376;2023-05-29T02:28:03;14.20;99.90
37984;DHT22;64625;50.882;4.376;2023-05-29T02:30:29;14.20;99.90
37984;DHT22;64625;50.882;4.376;2023-05-29T02:32:56;14.20;99.90
37984;DHT22;64625;50.882;4.376;2023-05-29T02:35:22;14.20;99.90
37984;DHT22;64625;50.882;4.376;2023-05-29T02:37:49;14.10;99.90
37984;DHT22;64625;50.882;4.376;2023-05-29T02:40:16;14.10;99.90
37984;DHT22;64625;50.882;4.376;2023-05-29T02:42:42;14.10;99.90
37984;DHT22;64625;50.882;4.376;2023-05-29T02:45:09;14.10;99.90
37984;DHT22;64625;50.882;4.376;2023-05-29T02:47:36;14.00;99.90
37984;DHT22;64625;50.882;4.376;2023-05-29T02:50:02;14.00;99.90
37984;DHT22;64625;50.882;4.376;2023-05-29T02:52:29;13.90;99.90
37984;DHT22;64625;50.882;4.376;2023-05-29T02:54:56;13.80;99.90
37984;DHT22;64625;50.882;4.376;2023-05-29T02:57:22;13.80;99.90
37984;DHT22;64625;50.882;4.376;2023-05-29T02:59:49;13.70;99.90
37984;DHT22;64625;50.882;4.376;2023-05-29T03:02:15;13.70;99.90
37984;DHT22;64625;50.882;4.376;2023-05-29T03:04:41;13.70;99.90
37984;DHT22;64625;50.882;4.376;2023-05-29T03:07:07;13.60;99.90
37984;DHT22;64625;50.882;4.376;2023-05-29T03:09:35;13.60;99.90
37984;DHT22;64625;50.882;4.376;2023-05-29T03:12:02;13.60;99.90
37984;DHT22;64625;50.882;4.376;2023-05-29T03:14:28;13.50;99.90
37984;DHT22;64625;50.882;4.376;2023-05-29T03:16:54;13.50;99.90
37984;DHT22;64625;50.882;4.376;2023-05-29T03:19:22;13.40;99.90
37984;DHT22;64625;50.882;4.376;2023-05-29T03:21:48;13.40;99.90
37984;DHT22;64625;50.882;4.376;2023-05-29T03:24:13;13.30;99.90
37984;DHT22;64625;50.882;4.376;2023-05-29T03:26:40;13.30;99.90
37984;DHT22;64625;50.882;4.376;2023-05-29T03:29:06;13.20;99.90
37984;DHT22;64625;50.882;4.376;2023-05-29T03:31:33;13.10;99.90
37984;DHT22;64625;50.882;4.376;2023-05-29T03:34:00;13.10;99.90
37984;DHT22;64625;50.882;4.376;2023-05-29T03:36:26;13.10;99.90
37984;DHT22;64625;50.882;4.376;2023-05-29T03:38:52;13.00;99.90
37984;DHT22;64625;50.882;4.376;2023-05-29T03:44:41;13.00;99.90
37984;DHT22;64625;50.882;4.376;2023-05-29T03:47:07;13.00;99.90
37984;DHT22;64625;50.882;4.376;2023-05-29T03:49:34;13.00;99.90
37984;DHT22;64625;50.882;4.376;2023-05-29T03:52:00;13.00;99.90
37984;DHT22;64625;50.882;4.376;2023-05-29T03:54:27;13.00;99.90
37984;DHT22;64625;50.882;4.376;2023-05-29T03:56:53;12.90;99.90
37984;DHT22;64625;50.882;4.376;2023-05-29T03:59:19;12.90;99.90
37984;DHT22;64625;50.882;4.376;2023-05-29T04:01:46;12.80;99.90
37984;DHT22;64625;50.882;4.376;2023-05-29T04:04:12;12.80;99.90
37984;DHT22;64625;50.882;4.376;2023-05-29T04:06:38;12.80;99.90
37984;DHT22;64625;50.882;4.376;2023-05-29T04:09:05;12.80;99.90
37984;DHT22;64625;50.882;4.376;2023-05-29T04:11:33;12.70;99.90
37984;DHT22;64625;50.882;4.376;2023-05-29T04:14:00;12.70;99.90
37984;DHT22;64625;50.882;4.376;2023-05-29T04:16:27;12.70;99.90
37984;DHT22;64625;50.882;4.376;2023-05-29T04:18:57;12.70;99.90
37984;DHT22;64625;50.882;4.376;2023-05-29T04:21:23;12.70;99.90
37984;DHT22;64625;50.882;4.376;2023-05-29T04:23:49;12.70;99.90
37984;DHT22;64625;50.882;4.376;2023-05-29T04:26:15;12.60;99.90
37984;DHT22;64625;50.882;4.376;2023-05-29T04:28:41;12.70;99.90
37984;DHT22;64625;50.882;4.376;2023-05-29T04:31:09;12.70;99.90
37984;DHT22;64625;50.882;4.376;2023-05-29T04:33:40;12.60;99.90
37984;DHT22;64625;50.882;4.376;2023-05-29T04:36:07;12.60;99.90
37984;DHT22;64625;50.882;4.376;2023-05-29T04:38:34;12.60;99.90
37984;DHT22;64625;50.882;4.376;2023-05-29T04:41:02;12.60;99.90
37984;DHT22;64625;50.882;4.376;2023-05-29T04:43:28;12.60;99.90
37984;DHT22;64625;50.882;4.376;2023-05-29T04:45:54;12.60;99.90
37984;DHT22;64625;50.882;4.376;2023-05-29T04:48:20;12.60;99.90
37984;DHT22;64625;50.882;4.376;2023-05-29T04:50:46;12.60;99.90
37984;DHT22;64625;50.882;4.376;2023-05-29T04:53:14;12.60;99.90
37984;DHT22;64625;50.882;4.376;2023-05-29T04:55:40;12.60;99.90
37984;DHT22;64625;50.882;4.376;2023-05-29T04:58:06;12.70;99.90
37984;DHT22;64625;50.882;4.376;2023-05-29T05:00:33;12.70;99.90
37984;DHT22;64625;50.882;4.376;2023-05-29T05:02:59;12.70;99.90
37984;DHT22;64625;50.882;4.376;2023-05-29T05:05:25;12.70;99.90
37984;DHT22;64625;50.882;4.376;2023-05-29T05:07:51;12.70;99.90
37984;DHT22;64625;50.882;4.376;2023-05-29T05:10:17;12.70;99.90
37984;DHT22;64625;50.882;4.376;2023-05-29T05:12:43;12.80;99.90
37984;DHT22;64625;50.882;4.376;2023-05-29T05:15:09;12.80;99.90
37984;DHT22;64625;50.882;4.376;2023-05-29T05:17:36;12.80;99.90
37984;DHT22;64625;50.882;4.376;2023-05-29T05:20:02;12.90;99.90
37984;DHT22;64625;50.882;4.376;2023-05-29T05:22:31;12.90;99.90
37984;DHT22;64625;50.882;4.376;2023-05-29T05:24:57;12.90;99.90
37984;DHT22;64625;50.882;4.376;2023-05-29T05:27:25;12.90;99.90
37984;DHT22;64625;50.882;4.376;2023-05-29T05:29:51;12.90;99.90
37984;DHT22;64625;50.882;4.376;2023-05-29T05:32:17;12.90;99.90
37984;DHT22;64625;50.882;4.376;2023-05-29T05:34:43;12.90;99.90
37984;DHT22;64625;50.882;4.376;2023-05-29T05:37:09;12.90;99.90
37984;DHT22;64625;50.882;4.376;2023-05-29T05:39:35;13.00;99.90
37984;DHT22;64625;50.882;4.376;2023-05-29T05:42:02;13.00;99.90
37984;DHT22;64625;50.882;4.376;2023-05-29T05:44:28;13.00;99.90
37984;DHT22;64625;50.882;4.376;2023-05-29T05:46:54;13.00;99.90
37984;DHT22;64625;50.882;4.376;2023-05-29T05:49:20;13.00;99.90
37984;DHT22;64625;50.882;4.376;2023-05-29T05:51:46;13.00;99.90
37984;DHT22;64625;50.882;4.376;2023-05-29T05:54:12;13.10;99.90
37984;DHT22;64625;50.882;4.376;2023-05-29T05:56:38;13.10;99.90
37984;DHT22;64625;50.882;4.376;2023-05-29T05:59:04;13.10;99.90
37984;DHT22;64625;50.882;4.376;2023-05-29T06:01:30;13.20;99.90
37984;DHT22;64625;50.882;4.376;2023-05-29T06:03:57;13.20;99.90
37984;DHT22;64625;50.882;4.376;2023-05-29T06:06:23;13.20;99.90
37984;DHT22;64625;50.882;4.376;2023-05-29T06:08:49;13.30;99.90
37984;DHT22;64625;50.882;4.376;2023-05-29T06:11:15;13.40;99.90
37984;DHT22;64625;50.882;4.376;2023-05-29T06:13:43;13.40;99.90
37984;DHT22;64625;50.882;4.376;2023-05-29T06:16:09;13.40;99.90
37984;DHT22;64625;50.882;4.376;2023-05-29T06:18:35;13.50;99.90
37984;DHT22;64625;50.882;4.376;2023-05-29T06:21:04;13.50;99.90
37984;DHT22;64625;50.882;4.376;2023-05-29T06:23:32;13.60;99.90
37984;DHT22;64625;50.882;4.376;2023-05-29T06:25:59;13.60;99.90
37984;DHT22;64625;50.882;4.376;2023-05-29T06:28:26;13.60;99.90
37984;DHT22;64625;50.882;4.376;2023-05-29T06:30:52;13.70;99.90
37984;DHT22;64625;50.882;4.376;2023-05-29T06:33:18;13.70;99.90
37984;DHT22;64625;50.882;4.376;2023-05-29T06:35:46;13.80;99.90
37984;DHT22;64625;50.882;4.376;2023-05-29T06:38:13;13.80;99.90
37984;DHT22;64625;50.882;4.376;2023-05-29T06:40:39;13.90;99.90
37984;DHT22;64625;50.882;4.376;2023-05-29T06:43:05;13.90;99.90
37984;DHT22;64625;50.882;4.376;2023-05-29T06:45:31;14.00;99.90
37984;DHT22;64625;50.882;4.376;2023-05-29T06:47:57;14.00;99.90
37984;DHT22;64625;50.882;4.376;2023-05-29T06:50:23;14.10;99.90
37984;DHT22;64625;50.882;4.376;2023-05-29T06:52:49;14.10;99.90
37984;DHT22;64625;50.882;4.376;2023-05-29T06:55:15;14.20;99.90
37984;DHT22;64625;50.882;4.376;2023-05-29T06:57:41;14.20;99.90
37984;DHT22;64625;50.882;4.376;2023-05-29T07:00:08;14.30;99.90
37984;DHT22;64625;50.882;4.376;2023-05-29T07:02:36;14.30;99.90
37984;DHT22;64625;50.882;4.376;2023-05-29T07:05:03;14.40;99.90
37984;DHT22;64625;50.882;4.376;2023-05-29T07:07:29;14.40;99.90
37984;DHT22;64625;50.882;4.376;2023-05-29T07:09:55;14.50;99.90
37984;DHT22;64625;50.882;4.376;2023-05-29T07:12:22;14.50;99.90
37984;DHT22;64625;50.882;4.376;2023-05-29T07:14:48;14.60;99.90
37984;DHT22;64625;50.882;4.376;2023-05-29T07:17:15;14.60;99.90
37984;DHT22;64625;50.882;4.376;2023-05-29T07:19:42;14.70;99.90
37984;DHT22;64625;50.882;4.376;2023-05-29T07:22:07;14.80;99.90
37984;DHT22;64625;50.882;4.376;2023-05-29T07:24:33;14.80;99.90
37984;DHT22;64625;50.882;4.376;2023-05-29T07:26:59;14.90;99.90
37984;DHT22;64625;50.882;4.376;2023-05-29T07:29:26;15.00;99.90
37984;DHT22;64625;50.882;4.376;2023-05-29T07:31:51;15.00;99.90
37984;DHT22;64625;50.882;4.376;2023-05-29T07:34:17;15.10;99.90
37984;DHT22;64625;50.882;4.376;2023-05-29T07:36:57;15.20;99.90
37984;DHT22;64625;50.882;4.376;2023-05-29T07:39:24;15.30;99.90
37984;DHT22;64625;50.882;4.376;2023-05-29T07:41:50;15.30;99.90
37984;DHT22;64625;50.882;4.376;2023-05-29T07:44:16;15.40;99.90
37984;DHT22;64625;50.882;4.376;2023-05-29T07:46:42;15.40;99.90
37984;DHT22;64625;50.882;4.376;2023-05-29T07:49:08;15.50;99.90
37984;DHT22;64625;50.882;4.376;2023-05-29T07:51:34;15.50;99.90
37984;DHT22;64625;50.882;4.376;2023-05-29T07:54:00;15.60;99.90
37984;DHT22;64625;50.882;4.376;2023-05-29T07:56:26;15.60;99.90
37984;DHT22;64625;50.882;4.376;2023-05-29T07:58:52;15.70;99.90
37984;DHT22;64625;50.882;4.376;2023-05-29T08:01:21;15.80;99.90
37984;DHT22;64625;50.882;4.376;2023-05-29T08:03:47;15.90;99.90
37984;DHT22;64625;50.882;4.376;2023-05-29T08:06:13;16.00;99.90
37984;DHT22;64625;50.882;4.376;2023-05-29T08:08:40;16.10;99.90
37984;DHT22;64625;50.882;4.376;2023-05-29T08:11:06;16.20;99.90
37984;DHT22;64625;50.882;4.376;2023-05-29T08:13:32;16.20;99.90
37984;DHT22;64625;50.882;4.376;2023-05-29T08:15:58;16.30;99.90
37984;DHT22;64625;50.882;4.376;2023-05-29T08:18:25;16.40;99.90
37984;DHT22;64625;50.882;4.376;2023-05-29T08:20:52;16.40;99.90
37984;DHT22;64625;50.882;4.376;2023-05-29T08:23:18;16.40;99.90
37984;DHT22;64625;50.882;4.376;2023-05-29T08:25:46;16.40;99.90
37984;DHT22;64625;50.882;4.376;2023-05-29T08:28:15;16.40;99.90
37984;DHT22;64625;50.882;4.376;2023-05-29T08:30:41;16.50;99.90
37984;DHT22;64625;50.882;4.376;2023-05-29T08:33:07;16.50;99.90
37984;DHT22;64625;50.882;4.376;2023-05-29T08:35:34;16.50;99.90
37984;DHT22;64625;50.882;4.376;2023-05-29T08:38:00;16.60;99.90
37984;DHT22;64625;50.882;4.376;2023-05-29T08:40:26;16.60;99.90
37984;DHT22;64625;50.882;4.376;2023-05-29T08:43:20;16.70;99.90
37984;DHT22;64625;50.882;4.376;2023-05-29T08:45:53;16.80;99.90
37984;DHT22;64625;50.882;4.376;2023-05-29T08:48:23;16.90;99.90
37984;DHT22;64625;50.882;4.376;2023-05-29T08:50:53;17.00;99.90
37984;DHT22;64625;50.882;4.376;2023-05-29T08:53:21;17.00;99.90
37984;DHT22;64625;50.882;4.376;2023-05-29T08:55:49;17.10;99.90
37984;DHT22;64625;50.882;4.376;2023-05-29T08:58:19;17.20;99.90
37984;DHT22;64625;50.882;4.376;2023-05-29T09:00:51;17.30;99.90
37984;DHT22;64625;50.882;4.376;2023-05-29T09:03:18;17.40;99.70
37984;DHT22;64625;50.882;4.376;2023-05-29T09:05:46;17.40;98.70
37984;DHT22;64625;50.882;4.376;2023-05-29T09:08:13;17.50;97.80
37984;DHT22;64625;50.882;4.376;2023-05-29T09:10:44;17.50;97.60
37984;DHT22;64625;50.882;4.376;2023-05-29T09:13:13;17.60;97.40
37984;DHT22;64625;50.882;4.376;2023-05-29T09:15:40;17.60;97.40
37984;DHT22;64625;50.882;4.376;2023-05-29T09:18:09;17.70;96.70
37984;DHT22;64625;50.882;4.376;2023-05-29T09:20:35;17.70;96.50
37984;DHT22;64625;50.882;4.376;2023-05-29T09:23:06;17.80;96.30
37984;DHT22;64625;50.882;4.376;2023-05-29T09:25:40;17.90;96.00
37984;DHT22;64625;50.882;4.376;2023-05-29T09:28:08;17.90;95.30
37984;DHT22;64625;50.882;4.376;2023-05-29T09:30:39;18.00;95.10
37984;DHT22;64625;50.882;4.376;2023-05-29T09:33:10;18.10;94.30
37984;DHT22;64625;50.882;4.376;2023-05-29T09:38:12;18.10;92.70
37984;DHT22;64625;50.882;4.376;2023-05-29T09:40:40;18.10;92.40
37984;DHT22;64625;50.882;4.376;2023-05-29T09:43:10;18.20;91.70
37984;DHT22;64625;50.882;4.376;2023-05-29T09:45:47;18.20;91.30
37984;DHT22;64625;50.882;4.376;2023-05-29T09:48:16;18.20;91.50
37984;DHT22;64625;50.882;4.376;2023-05-29T09:50:44;18.20;91.40
37984;DHT22;64625;50.882;4.376;2023-05-29T09:53:25;18.20;91.20
37984;DHT22;64625;50.882;4.376;2023-05-29T09:55:53;18.30;91.90
37984;DHT22;64625;50.882;4.376;2023-05-29T09:58:23;18.40;92.00
37984;DHT22;64625;50.882;4.376;2023-05-29T10:00:50;18.40;90.20
37984;DHT22;64625;50.882;4.376;2023-05-29T10:03:18;18.40;89.60
37984;DHT22;64625;50.882;4.376;2023-05-29T10:05:54;18.50;90.10
37984;DHT22;64625;50.882;4.376;2023-05-29T10:08:22;18.50;89.20
37984;DHT22;64625;50.882;4.376;2023-05-29T10:10:56;18.50;88.90
37984;DHT22;64625;50.882;4.376;2023-05-29T10:13:26;18.60;89.20
37984;DHT22;64625;50.882;4.376;2023-05-29T10:15:54;18.70;88.60
37984;DHT22;64625;50.882;4.376;2023-05-29T10:20:53;18.80;87.20
37984;DHT22;64625;50.882;4.376;2023-05-29T10:23:24;18.80;86.60
37984;DHT22;64625;50.882;4.376;2023-05-29T10:25:55;18.90;87.10
37984;DHT22;64625;50.882;4.376;2023-05-29T10:28:25;19.00;88.20
37984;DHT22;64625;50.882;4.376;2023-05-29T10:31:08;19.00;87.70
37984;DHT22;64625;50.882;4.376;2023-05-29T10:34:07;19.00;87.00
37984;DHT22;64625;50.882;4.376;2023-05-29T10:36:43;19.10;87.20
37984;DHT22;64625;50.882;4.376;2023-05-29T10:39:10;19.30;86.90
37984;DHT22;64625;50.882;4.376;2023-05-29T10:41:37;19.30;85.90
37984;DHT22;64625;50.882;4.376;2023-05-29T10:49:26;19.50;84.30
37984;DHT22;64625;50.882;4.376;2023-05-29T10:51:52;19.50;83.60
37984;DHT22;64625;50.882;4.376;2023-05-29T10:54:24;19.60;82.70
37984;DHT22;64625;50.882;4.376;2023-05-29T10:56:58;19.60;82.90
37984;DHT22;64625;50.882;4.376;2023-05-29T10:59:25;19.70;81.40
37984;DHT22;64625;50.882;4.376;2023-05-29T11:01:55;19.70;81.20
37984;DHT22;64625;50.882;4.376;2023-05-29T11:06:52;19.80;81.50
37984;DHT22;64625;50.882;4.376;2023-05-29T11:12:25;19.90;80.40
37984;DHT22;64625;50.882;4.376;2023-05-29T11:15:11;20.00;81.40
37984;DHT22;64625;50.882;4.376;2023-05-29T11:20:24;20.20;80.00
37984;DHT22;64625;50.882;4.376;2023-05-29T11:25:25;20.30;80.00
37984;DHT22;64625;50.882;4.376;2023-05-29T11:27:51;20.40;80.20
37984;DHT22;64625;50.882;4.376;2023-05-29T11:30:18;20.40;79.00
37984;DHT22;64625;50.882;4.376;2023-05-29T11:32:48;20.40;77.70
37984;DHT22;64625;50.882;4.376;2023-05-29T11:35:16;20.40;76.70
37984;DHT22;64625;50.882;4.376;2023-05-29T11:37:44;20.40;76.60
37984;DHT22;64625;50.882;4.376;2023-05-29T11:40:13;20.50;77.00
37984;DHT22;64625;50.882;4.376;2023-05-29T11:42:44;20.50;76.00
37984;DHT22;64625;50.882;4.376;2023-05-29T11:45:19;20.50;75.50
37984;DHT22;64625;50.882;4.376;2023-05-29T11:48:02;20.60;75.90
37984;DHT22;64625;50.882;4.376;2023-05-29T11:50:30;20.60;76.30
37984;DHT22;64625;50.882;4.376;2023-05-29T11:52:58;20.70;76.30
37984;DHT22;64625;50.882;4.376;2023-05-29T11:55:25;20.80;76.00
37984;DHT22;64625;50.882;4.376;2023-05-29T11:57:56;20.90;75.40
37984;DHT22;64625;50.882;4.376;2023-05-29T12:00:23;20.90;75.50
37984;DHT22;64625;50.882;4.376;2023-05-29T12:02:51;21.00;75.60
37984;DHT22;64625;50.882;4.376;2023-05-29T12:05:18;21.20;75.50
37984;DHT22;64625;50.882;4.376;2023-05-29T12:07:49;21.20;75.60
37984;DHT22;64625;50.882;4.376;2023-05-29T12:10:18;21.30;75.60
37984;DHT22;64625;50.882;4.376;2023-05-29T12:12:49;21.40;75.30
37984;DHT22;64625;50.882;4.376;2023-05-29T12:15:15;21.40;74.20
37984;DHT22;64625;50.882;4.376;2023-05-29T12:17:44;21.50;74.10
37984;DHT22;64625;50.882;4.376;2023-05-29T12:20:11;21.60;73.50
37984;DHT22;64625;50.882;4.376;2023-05-29T12:22:39;21.60;72.20
37984;DHT22;64625;50.882;4.376;2023-05-29T12:25:16;21.70;71.20
37984;DHT22;64625;50.882;4.376;2023-05-29T12:27:45;21.70;70.70
37984;DHT22;64625;50.882;4.376;2023-05-29T12:30:13;21.80;70.40
37984;DHT22;64625;50.882;4.376;2023-05-29T12:32:44;21.80;69.10
37984;DHT22;64625;50.882;4.376;2023-05-29T12:35:17;21.80;69.30
37984;DHT22;64625;50.882;4.376;2023-05-29T12:37:45;21.90;69.20
37984;DHT22;64625;50.882;4.376;2023-05-29T12:40:18;21.90;69.00
37984;DHT22;64625;50.882;4.376;2023-05-29T12:42:52;22.00;68.60
37984;DHT22;64625;50.882;4.376;2023-05-29T12:45:19;22.10;68.80
37984;DHT22;64625;50.882;4.376;2023-05-29T12:47:56;22.10;68.80
37984;DHT22;64625;50.882;4.376;2023-05-29T12:50:24;22.20;67.40
37984;DHT22;64625;50.882;4.376;2023-05-29T12:53:03;22.30;67.50
37984;DHT22;64625;50.882;4.376;2023-05-29T12:55:31;22.30;65.90
37984;DHT22;64625;50.882;4.376;2023-05-29T12:58:07;22.30;66.20
37984;DHT22;64625;50.882;4.376;2023-05-29T13:00:35;22.30;66.70
37984;DHT22;64625;50.882;4.376;2023-05-29T13:03:01;22.50;67.90
37984;DHT22;64625;50.882;4.376;2023-05-29T13:05:28;22.60;67.90
37984;DHT22;64625;50.882;4.376;2023-05-29T13:07:54;22.60;66.60
37984;DHT22;64625;50.882;4.376;2023-05-29T13:10:21;22.60;66.30
37984;DHT22;64625;50.882;4.376;2023-05-29T13:12:48;22.70;66.60
37984;DHT22;64625;50.882;4.376;2023-05-29T13:15:20;22.80;66.60
37984;DHT22;64625;50.882;4.376;2023-05-29T13:17:46;22.90;66.60
37984;DHT22;64625;50.882;4.376;2023-05-29T13:20:13;23.00;66.30
37984;DHT22;64625;50.882;4.376;2023-05-29T13:22:43;23.00;65.30
37984;DHT22;64625;50.882;4.376;2023-05-29T13:25:10;23.10;64.40
37984;DHT22;64625;50.882;4.376;2023-05-29T13:27:43;23.20;63.90
37984;DHT22;64625;50.882;4.376;2023-05-29T13:30:11;23.20;63.60
37984;DHT22;64625;50.882;4.376;2023-05-29T13:32:38;23.30;63.70
37984;DHT22;64625;50.882;4.376;2023-05-29T13:35:04;23.30;62.80
37984;DHT22;64625;50.882;4.376;2023-05-29T13:37:31;23.30;62.40
37984;DHT22;64625;50.882;4.376;2023-05-29T13:39:58;23.30;62.10
37984;DHT22;64625;50.882;4.376;2023-05-29T13:42:24;23.40;62.10
37984;DHT22;64625;50.882;4.376;2023-05-29T13:44:50;23.40;62.30
37984;DHT22;64625;50.882;4.376;2023-05-29T13:47:17;23.50;62.20
37984;DHT22;64625;50.882;4.376;2023-05-29T13:49:43;23.60;62.10
37984;DHT22;64625;50.882;4.376;2023-05-29T13:52:09;23.70;62.20
37984;DHT22;64625;50.882;4.376;2023-05-29T13:54:35;23.80;61.80
37984;DHT22;64625;50.882;4.376;2023-05-29T13:57:02;23.90;61.80
37984;DHT22;64625;50.882;4.376;2023-05-29T13:59:30;24.00;61.60
37984;DHT22;64625;50.882;4.376;2023-05-29T14:01:56;24.10;61.40
37984;DHT22;64625;50.882;4.376;2023-05-29T14:04:22;24.30;60.60
37984;DHT22;64625;50.882;4.376;2023-05-29T14:06:48;24.40;60.70
37984;DHT22;64625;50.882;4.376;2023-05-29T14:09:14;24.50;60.60
37984;DHT22;64625;50.882;4.376;2023-05-29T14:11:40;24.60;59.80
37984;DHT22;64625;50.882;4.376;2023-05-29T14:14:06;24.70;60.10
37984;DHT22;64625;50.882;4.376;2023-05-29T14:16:34;24.80;60.10
37984;DHT22;64625;50.882;4.376;2023-05-29T14:19:00;25.00;59.80
37984;DHT22;64625;50.882;4.376;2023-05-29T14:21:26;25.10;59.20
37984;DHT22;64625;50.882;4.376;2023-05-29T14:23:52;25.10;58.30
37984;DHT22;64625;50.882;4.376;2023-05-29T14:26:18;25.20;58.00
37984;DHT22;64625;50.882;4.376;2023-05-29T14:28:44;25.20;58.00
37984;DHT22;64625;50.882;4.376;2023-05-29T14:31:10;25.30;58.30
37984;DHT22;64625;50.882;4.376;2023-05-29T14:33:37;25.30;58.30
37984;DHT22;64625;50.882;4.376;2023-05-29T14:36:03;25.40;58.10
37984;DHT22;64625;50.882;4.376;2023-05-29T14:38:30;25.30;57.00
37984;DHT22;64625;50.882;4.376;2023-05-29T14:40:56;25.30;56.60
37984;DHT22;64625;50.882;4.376;2023-05-29T14:43:22;25.30;56.80
37984;DHT22;64625;50.882;4.376;2023-05-29T14:45:48;25.40;57.40
37984;DHT22;64625;50.882;4.376;2023-05-29T14:48:14;25.40;56.60
37984;DHT22;64625;50.882;4.376;2023-05-29T14:50:42;25.40;55.70
37984;DHT22;64625;50.882;4.376;2023-05-29T14:53:08;25.40;55.60
37984;DHT22;64625;50.882;4.376;2023-05-29T14:55:34;25.40;55.70
37984;DHT22;64625;50.882;4.376;2023-05-29T14:58:06;25.40;55.90
37984;DHT22;64625;50.882;4.376;2023-05-29T15:00:32;25.40;55.80
37984;DHT22;64625;50.882;4.376;2023-05-29T15:02:58;25.30;55.60
37984;DHT22;64625;50.882;4.376;2023-05-29T15:05:28;25.30;55.60
37984;DHT22;64625;50.882;4.376;2023-05-29T15:07:55;25.30;55.70
37984;DHT22;64625;50.882;4.376;2023-05-29T15:10:25;25.40;55.50
37984;DHT22;64625;50.882;4.376;2023-05-29T15:12:54;25.40;55.40
37984;DHT22;64625;50.882;4.376;2023-05-29T15:15:26;25.40;55.00
37984;DHT22;64625;50.882;4.376;2023-05-29T15:17:54;25.30;54.70
37984;DHT22;64625;50.882;4.376;2023-05-29T15:20:24;25.30;54.00
37984;DHT22;64625;50.882;4.376;2023-05-29T15:22:53;25.10;53.70
37984;DHT22;64625;50.882;4.376;2023-05-29T15:25:20;25.00;53.60
37984;DHT22;64625;50.882;4.376;2023-05-29T15:27:47;25.00;53.70
37984;DHT22;64625;50.882;4.376;2023-05-29T15:30:17;24.90;53.40
37984;DHT22;64625;50.882;4.376;2023-05-29T15:32:44;24.90;53.40
37984;DHT22;64625;50.882;4.376;2023-05-29T15:35:14;24.70;53.50
37984;DHT22;64625;50.882;4.376;2023-05-29T15:37:42;24.70;54.00
37984;DHT22;64625;50.882;4.376;2023-05-29T15:40:09;24.70;54.40
37984;DHT22;64625;50.882;4.376;2023-05-29T15:42:35;24.60;54.50
37984;DHT22;64625;50.882;4.376;2023-05-29T15:45:03;24.60;54.40
37984;DHT22;64625;50.882;4.376;2023-05-29T15:47:30;24.60;54.40
37984;DHT22;64625;50.882;4.376;2023-05-29T15:49:57;24.60;54.10
37984;DHT22;64625;50.882;4.376;2023-05-29T15:52:24;24.60;53.30
37984;DHT22;64625;50.882;4.376;2023-05-29T15:54:50;24.50;52.70
37984;DHT22;64625;50.882;4.376;2023-05-29T15:57:16;24.40;52.30
37984;DHT22;64625;50.882;4.376;2023-05-29T15:59:42;24.30;52.40
37984;DHT22;64625;50.882;4.376;2023-05-29T16:02:08;24.20;52.60
37984;DHT22;64625;50.882;4.376;2023-05-29T16:04:36;24.10;52.60
37984;DHT22;64625;50.882;4.376;2023-05-29T16:07:03;24.00;51.90
37984;DHT22;64625;50.882;4.376;2023-05-29T16:09:30;23.80;51.80